sensor_id;sensor_type;location;lat;lon;timestamp;temperature;humidity
20487;DHT22;10402;49.012;8.370;2023-02-21T00:01:02;9.60;74.20
20487;DHT22;10402;49.012;8.370;2023-02-21T00:03:46;9.60;74.10
20487;DHT22;10402;49.012;8.370;2023-02-21T00:06:30;9.60;74.20
20487;DHT22;10402;49.012;8.370;2023-02-21T00:09:14;9.60;74.10
20487;DHT22;10402;49.012;8.370;2023-02-21T00:11:58;9.50;74.20
20487;DHT22;10402;49.012;8.370;2023-02-21T00:14:42;9.50;74.20
20487;DHT22;10402;49.012;8.370;2023-02-21T00:17:26;9.50;74.30
20487;DHT22;10402;49.012;8.370;2023-02-21T00:20:10;9.40;74.10
20487;DHT22;10402;49.012;8.370;2023-02-21T00:22:54;9.40;74.10
20487;DHT22;10402;49.012;8.370;2023-02-21T00:25:38;9.30;74.00
20487;DHT22;10402;49.012;8.370;2023-02-21T00:28:22;9.30;74.00
20487;DHT22;10402;49.012;8.370;2023-02-21T00:31:06;9.30;74.10
20487;DHT22;10402;49.012;8.370;2023-02-21T00:33:51;9.20;74.00
20487;DHT22;10402;49.012;8.370;2023-02-21T00:36:35;9.20;74.00
20487;DHT22;10402;49.012;8.370;2023-02-21T00:39:19;9.20;74.00
20487;DHT22;10402;49.012;8.370;2023-02-21T00:42:03;9.10;73.90
20487;DHT22;10402;49.012;8.370;2023-02-21T00:44:47;9.20;74.00
20487;DHT22;10402;49.012;8.370;2023-02-21T00:47:31;9.10;74.00
20487;DHT22;10402;49.012;8.370;2023-02-21T00:50:15;9.10;73.90
20487;DHT22;10402;49.012;8.370;2023-02-21T00:52:59;9.10;73.90
20487;DHT22;10402;49.012;8.370;2023-02-21T00:55:43;9.10;74.00
20487;DHT22;10402;49.012;8.370;2023-02-21T00:58:27;9.10;74.20
20487;DHT22;10402;49.012;8.370;2023-02-21T01:01:11;9.10;74.00
20487;DHT22;10402;49.012;8.370;2023-02-21T01:03:57;9.00;74.40
20487;DHT22;10402;49.012;8.370;2023-02-21T01:06:41;9.00;74.40
20487;DHT22;10402;49.012;8.370;2023-02-21T01:09:25;8.90;74.30
20487;DHT22;10402;49.012;8.370;2023-02-21T01:12:09;8.90;74.30
20487;DHT22;10402;49.012;8.370;2023-02-21T01:14:53;8.90;74.40
20487;DHT22;10402;49.012;8.370;2023-02-21T01:17:37;8.90;74.60
20487;DHT22;10402;49.012;8.370;2023-02-21T01:20:21;8.80;74.60
20487;DHT22;10402;49.012;8.370;2023-02-21T01:23:05;8.80;74.60
20487;DHT22;10402;49.012;8.370;2023-02-21T01:25:49;8.80;74.60
20487;DHT22;10402;49.012;8.370;2023-02-21T01:28:33;8.80;74.60
20487;DHT22;10402;49.012;8.370;2023-02-21T01:31:18;8.90;74.70
20487;DHT22;10402;49.012;8.370;2023-02-21T01:34:02;8.80;74.70
20487;DHT22;10402;49.012;8.370;2023-02-21T01:36:46;8.80;74.70
20487;DHT22;10402;49.012;8.370;2023-02-21T01:39:30;8.80;74.80
20487;DHT22;10402;49.012;8.370;2023-02-21T01:42:14;8.80;74.90
20487;DHT22;10402;49.012;8.370;2023-02-21T01:48:10;8.70;75.10
20487;DHT22;10402;49.012;8.370;2023-02-21T01:50:57;8.60;75.10
20487;DHT22;10402;49.012;8.370;2023-02-21T01:53:42;8.60;75.30
20487;DHT22;10402;49.012;8.370;2023-02-21T01:56:27;8.60;75.30
20487;DHT22;10402;49.012;8.370;2023-02-21T01:59:12;8.60;75.30
20487;DHT22;10402;49.012;8.370;2023-02-21T02:04:55;8.60;75.30
20487;DHT22;10402;49.012;8.370;2023-02-21T02:07:40;8.50;75.40
20487;DHT22;10402;49.012;8.370;2023-02-21T02:10:24;8.50;75.60
20487;DHT22;10402;49.012;8.370;2023-02-21T02:13:31;8.40;75.60
20487;DHT22;10402;49.012;8.370;2023-02-21T02:16:08;8.40;75.70
20487;DHT22;10402;49.012;8.370;2023-02-21T02:38:24;8.40;76.00
20487;DHT22;10402;49.012;8.370;2023-02-21T02:41:21;8.40;76.80
20487;DHT22;10402;49.012;8.370;2023-02-21T02:43:56;8.40;76.10
20487;DHT22;10402;49.012;8.370;2023-02-21T02:46:27;8.50;76.10
20487;DHT22;10402;49.012;8.370;2023-02-21T02:48:57;8.40;76.10
20487;DHT22;10402;49.012;8.370;2023-02-21T02:51:25;8.50;76.20
20487;DHT22;10402;49.012;8.370;2023-02-21T02:53:51;8.50;76.10
20487;DHT22;10402;49.012;8.370;2023-02-21T02:56:16;8.40;76.10
20487;DHT22;10402;49.012;8.370;2023-02-21T02:58:46;8.40;76.20
20487;DHT22;10402;49.012;8.370;2023-02-21T03:09:34;8.30;76.50
20487;DHT22;10402;49.012;8.370;2023-02-21T03:12:07;8.30;76.70
20487;DHT22;10402;49.012;8.370;2023-02-21T03:14:52;8.30;76.70
20487;DHT22;10402;49.012;8.370;2023-02-21T03:17:23;8.20;76.70
20487;DHT22;10402;49.012;8.370;2023-02-21T03:19:50;8.20;76.80
20487;DHT22;10402;49.012;8.370;2023-02-21T03:22:21;8.20;76.80
20487;DHT22;10402;49.012;8.370;2023-02-21T03:24:50;8.20;76.80
20487;DHT22;10402;49.012;8.370;2023-02-21T03:27:19;8.20;76.80
20487;DHT22;10402;49.012;8.370;2023-02-21T03:29:45;8.20;76.80
20487;DHT22;10402;49.012;8.370;2023-02-21T03:32:25;8.10;76.60
20487;DHT22;10402;49.012;8.370;2023-02-21T03:34:52;8.10;76.80
20487;DHT22;10402;49.012;8.370;2023-02-21T03:37:21;8.10;77.00
20487;DHT22;10402;49.012;8.370;2023-02-21T03:39:52;8.10;77.60
20487;DHT22;10402;49.012;8.370;2023-02-21T03:42:18;8.10;76.90
20487;DHT22;10402;49.012;8.370;2023-02-21T03:44:43;8.10;77.00
20487;DHT22;10402;49.012;8.370;2023-02-21T03:47:09;8.10;77.10
20487;DHT22;10402;49.012;8.370;2023-02-21T03:49:34;8.10;77.10
20487;DHT22;10402;49.012;8.370;2023-02-21T03:52:00;8.10;77.10
20487;DHT22;10402;49.012;8.370;2023-02-21T03:54:25;8.10;77.20
20487;DHT22;10402;49.012;8.370;2023-02-21T03:56:51;8.00;77.10
20487;DHT22;10402;49.012;8.370;2023-02-21T03:59:17;8.10;77.20
20487;DHT22;10402;49.012;8.370;2023-02-21T04:01:42;8.10;77.20
20487;DHT22;10402;49.012;8.370;2023-02-21T04:04:08;8.10;77.20
20487;DHT22;10402;49.012;8.370;2023-02-21T04:06:34;8.10;77.20
20487;DHT22;10402;49.012;8.370;2023-02-21T04:08:59;8.00;77.20
20487;DHT22;10402;49.012;8.370;2023-02-21T04:11:25;8.00;77.30
20487;DHT22;10402;49.012;8.370;2023-02-21T04:13:51;8.00;77.30
20487;DHT22;10402;49.012;8.370;2023-02-21T04:16:16;8.00;77.40
20487;DHT22;10402;49.012;8.370;2023-02-21T04:18:42;8.00;77.50
20487;DHT22;10402;49.012;8.370;2023-02-21T04:21:07;8.00;77.50
20487;DHT22;10402;49.012;8.370;2023-02-21T04:23:33;8.00;77.50
20487;DHT22;10402;49.012;8.370;2023-02-21T04:25:58;7.90;77.50
20487;DHT22;10402;49.012;8.370;2023-02-21T04:28:24;7.90;77.60
20487;DHT22;10402;49.012;8.370;2023-02-21T04:30:49;7.80;77.60
20487;DHT22;10402;49.012;8.370;2023-02-21T04:33:15;7.90;77.80
20487;DHT22;10402;49.012;8.370;2023-02-21T04:35:40;7.80;77.70
20487;DHT22;10402;49.012;8.370;2023-02-21T04:38:06;7.80;77.70
20487;DHT22;10402;49.012;8.370;2023-02-21T04:40:32;7.80;77.80
20487;DHT22;10402;49.012;8.370;2023-02-21T04:42:57;7.80;77.90
20487;DHT22;10402;49.012;8.370;2023-02-21T04:45:23;7.80;78.00
20487;DHT22;10402;49.012;8.370;2023-02-21T04:47:48;7.80;78.00
20487;DHT22;10402;49.012;8.370;2023-02-21T04:50:14;7.80;78.00
20487;DHT22;10402;49.012;8.370;2023-02-21T04:52:40;7.80;77.90
20487;DHT22;10402;49.012;8.370;2023-02-21T04:55:07;7.80;77.90
20487;DHT22;10402;49.012;8.370;2023-02-21T04:57:32;7.80;78.00
20487;DHT22;10402;49.012;8.370;2023-02-21T04:59:59;7.80;78.00
20487;DHT22;10402;49.012;8.370;2023-02-21T05:02:25;7.80;78.10
20487;DHT22;10402;49.012;8.370;2023-02-21T05:04:51;7.70;78.00
20487;DHT22;10402;49.012;8.370;2023-02-21T05:07:16;7.70;78.20
20487;DHT22;10402;49.012;8.370;2023-02-21T05:09:42;7.70;78.10
20487;DHT22;10402;49.012;8.370;2023-02-21T05:12:07;7.70;78.20
20487;DHT22;10402;49.012;8.370;2023-02-21T05:14:39;7.70;78.20
20487;DHT22;10402;49.012;8.370;2023-02-21T05:17:05;7.60;78.10
20487;DHT22;10402;49.012;8.370;2023-02-21T05:19:31;7.60;78.10
20487;DHT22;10402;49.012;8.370;2023-02-21T05:21:59;7.60;78.30
20487;DHT22;10402;49.012;8.370;2023-02-21T05:24:27;7.60;78.40
20487;DHT22;10402;49.012;8.370;2023-02-21T05:26:52;7.50;78.40
20487;DHT22;10402;49.012;8.370;2023-02-21T05:29:18;7.50;78.40
20487;DHT22;10402;49.012;8.370;2023-02-21T05:31:45;7.50;78.60
20487;DHT22;10402;49.012;8.370;2023-02-21T05:34:11;7.50;78.70
20487;DHT22;10402;49.012;8.370;2023-02-21T05:36:37;7.50;78.70
20487;DHT22;10402;49.012;8.370;2023-02-21T05:39:03;7.50;78.80
20487;DHT22;10402;49.012;8.370;2023-02-21T05:41:28;7.40;78.70
20487;DHT22;10402;49.012;8.370;2023-02-21T05:43:54;7.40;78.80
20487;DHT22;10402;49.012;8.370;2023-02-21T05:46:31;7.40;78.90
20487;DHT22;10402;49.012;8.370;2023-02-21T05:48:59;7.40;78.90
20487;DHT22;10402;49.012;8.370;2023-02-21T05:51:25;7.40;79.00
20487;DHT22;10402;49.012;8.370;2023-02-21T05:53:51;7.30;78.90
20487;DHT22;10402;49.012;8.370;2023-02-21T05:56:18;7.30;78.90
20487;DHT22;10402;49.012;8.370;2023-02-21T05:58:44;7.30;79.00
20487;DHT22;10402;49.012;8.370;2023-02-21T06:01:10;7.30;79.10
20487;DHT22;10402;49.012;8.370;2023-02-21T06:03:36;7.30;79.10
20487;DHT22;10402;49.012;8.370;2023-02-21T06:06:02;7.20;79.00
20487;DHT22;10402;49.012;8.370;2023-02-21T06:08:27;7.20;79.10
20487;DHT22;10402;49.012;8.370;2023-02-21T06:10:53;7.20;79.20
20487;DHT22;10402;49.012;8.370;2023-02-21T06:13:19;7.10;79.30
20487;DHT22;10402;49.012;8.370;2023-02-21T06:15:44;7.00;79.30
20487;DHT22;10402;49.012;8.370;2023-02-21T06:18:13;7.00;79.30
20487;DHT22;10402;49.012;8.370;2023-02-21T06:20:39;7.00;79.60
20487;DHT22;10402;49.012;8.370;2023-02-21T06:23:04;7.00;79.60
20487;DHT22;10402;49.012;8.370;2023-02-21T06:25:30;6.90;79.50
20487;DHT22;10402;49.012;8.370;2023-02-21T06:27:55;6.90;79.60
20487;DHT22;10402;49.012;8.370;2023-02-21T06:30:21;6.90;79.80
20487;DHT22;10402;49.012;8.370;2023-02-21T06:32:46;6.90;79.80
20487;DHT22;10402;49.012;8.370;2023-02-21T06:35:12;6.90;80.50
20487;DHT22;10402;49.012;8.370;2023-02-21T06:37:37;6.90;79.70
20487;DHT22;10402;49.012;8.370;2023-02-21T06:40:03;6.90;79.80
20487;DHT22;10402;49.012;8.370;2023-02-21T06:42:29;6.90;79.80
20487;DHT22;10402;49.012;8.370;2023-02-21T06:44:55;6.90;79.90
20487;DHT22;10402;49.012;8.370;2023-02-21T06:47:20;7.00;80.80
20487;DHT22;10402;49.012;8.370;2023-02-21T06:49:46;6.90;80.00
20487;DHT22;10402;49.012;8.370;2023-02-21T06:52:12;7.00;80.00
20487;DHT22;10402;49.012;8.370;2023-02-21T06:54:37;7.00;79.90
20487;DHT22;10402;49.012;8.370;2023-02-21T06:57:03;7.00;79.90
20487;DHT22;10402;49.012;8.370;2023-02-21T06:59:30;7.10;80.00
20487;DHT22;10402;49.012;8.370;2023-02-21T07:01:56;7.10;79.80
20487;DHT22;10402;49.012;8.370;2023-02-21T07:04:22;7.10;79.70
20487;DHT22;10402;49.012;8.370;2023-02-21T07:06:48;7.10;79.70
20487;DHT22;10402;49.012;8.370;2023-02-21T07:09:15;7.10;79.80
20487;DHT22;10402;49.012;8.370;2023-02-21T07:11:40;7.20;79.90
20487;DHT22;10402;49.012;8.370;2023-02-21T07:14:06;7.20;79.90
20487;DHT22;10402;49.012;8.370;2023-02-21T07:16:32;7.20;79.80
20487;DHT22;10402;49.012;8.370;2023-02-21T07:18:57;7.10;79.80
20487;DHT22;10402;49.012;8.370;2023-02-21T07:21:25;7.20;80.00
20487;DHT22;10402;49.012;8.370;2023-02-21T07:23:51;7.20;79.80
20487;DHT22;10402;49.012;8.370;2023-02-21T07:26:16;7.20;79.90
20487;DHT22;10402;49.012;8.370;2023-02-21T07:28:42;7.20;79.90
20487;DHT22;10402;49.012;8.370;2023-02-21T07:31:07;7.20;79.90
20487;DHT22;10402;49.012;8.370;2023-02-21T07:33:35;7.20;80.00
20487;DHT22;10402;49.012;8.370;2023-02-21T07:36:00;7.20;79.90
20487;DHT22;10402;49.012;8.370;2023-02-21T07:38:29;7.20;80.00
20487;DHT22;10402;49.012;8.370;2023-02-21T07:40:57;7.20;79.90
20487;DHT22;10402;49.012;8.370;2023-02-21T07:43:24;7.20;80.00
20487;DHT22;10402;49.012;8.370;2023-02-21T07:45:50;7.30;80.00
20487;DHT22;10402;49.012;8.370;2023-02-21T07:48:16;7.30;80.00
20487;DHT22;10402;49.012;8.370;2023-02-21T07:50:42;7.30;80.00
20487;DHT22;10402;49.012;8.370;2023-02-21T07:53:09;7.40;79.90
20487;DHT22;10402;49.012;8.370;2023-02-21T07:55:35;7.50;79.80
20487;DHT22;10402;49.012;8.370;2023-02-21T07:58:00;7.50;79.80
20487;DHT22;10402;49.012;8.370;2023-02-21T08:00:26;7.50;79.80
20487;DHT22;10402;49.012;8.370;2023-02-21T08:02:52;7.60;80.00
20487;DHT22;10402;49.012;8.370;2023-02-21T08:05:19;7.60;80.00
20487;DHT22;10402;49.012;8.370;2023-02-21T08:07:45;7.70;80.00
20487;DHT22;10402;49.012;8.370;2023-02-21T08:10:12;7.70;79.90
20487;DHT22;10402;49.012;8.370;2023-02-21T08:12:38;7.70;79.80
20487;DHT22;10402;49.012;8.370;2023-02-21T08:15:04;7.70;79.70
20487;DHT22;10402;49.012;8.370;2023-02-21T08:17:30;7.80;79.80
20487;DHT22;10402;49.012;8.370;2023-02-21T08:19:56;7.80;79.70
20487;DHT22;10402;49.012;8.370;2023-02-21T08:22:22;7.80;79.80
20487;DHT22;10402;49.012;8.370;2023-02-21T08:24:49;7.80;79.70
20487;DHT22;10402;49.012;8.370;2023-02-21T08:27:15;7.90;79.70
20487;DHT22;10402;49.012;8.370;2023-02-21T08:29:41;7.90;79.60
20487;DHT22;10402;49.012;8.370;2023-02-21T08:32:07;8.00;79.60
20487;DHT22;10402;49.012;8.370;2023-02-21T08:34:33;8.00;79.50
20487;DHT22;10402;49.012;8.370;2023-02-21T08:36:59;8.00;79.40
20487;DHT22;10402;49.012;8.370;2023-02-21T08:39:24;8.20;79.70
20487;DHT22;10402;49.012;8.370;2023-02-21T08:41:54;8.20;79.50
20487;DHT22;10402;49.012;8.370;2023-02-21T08:44:19;8.30;79.30
20487;DHT22;10402;49.012;8.370;2023-02-21T08:46:46;8.40;79.10
20487;DHT22;10402;49.012;8.370;2023-02-21T08:49:12;8.50;79.10
20487;DHT22;10402;49.012;8.370;2023-02-21T08:51:38;8.60;79.10
20487;DHT22;10402;49.012;8.370;2023-02-21T08:54:05;8.60;79.00
20487;DHT22;10402;49.012;8.370;2023-02-21T08:56:31;8.70;78.90
20487;DHT22;10402;49.012;8.370;2023-02-21T08:58:57;8.70;78.60
20487;DHT22;10402;49.012;8.370;2023-02-21T09:01:23;8.80;78.60
20487;DHT22;10402;49.012;8.370;2023-02-21T09:03:54;8.80;78.50
20487;DHT22;10402;49.012;8.370;2023-02-21T09:06:19;8.90;78.50
20487;DHT22;10402;49.012;8.370;2023-02-21T09:08:45;8.90;79.20
20487;DHT22;10402;49.012;8.370;2023-02-21T09:11:10;8.90;78.40
20487;DHT22;10402;49.012;8.370;2023-02-21T09:13:36;9.00;78.30
20487;DHT22;10402;49.012;8.370;2023-02-21T09:16:03;9.10;78.40
20487;DHT22;10402;49.012;8.370;2023-02-21T09:18:30;9.10;78.20
20487;DHT22;10402;49.012;8.370;2023-02-21T09:20:56;9.20;78.20
20487;DHT22;10402;49.012;8.370;2023-02-21T09:23:23;9.20;78.20
20487;DHT22;10402;49.012;8.370;2023-02-21T09:25:50;9.30;78.20
20487;DHT22;10402;49.012;8.370;2023-02-21T09:28:16;9.30;78.00
20487;DHT22;10402;49.012;8.370;2023-02-21T09:30:42;9.40;78.00
20487;DHT22;10402;49.012;8.370;2023-02-21T09:33:07;9.50;77.90
20487;DHT22;10402;49.012;8.370;2023-02-21T09:35:33;9.50;77.70
20487;DHT22;10402;49.012;8.370;2023-02-21T09:37:59;9.60;77.70
20487;DHT22;10402;49.012;8.370;2023-02-21T09:40:48;9.60;77.60
20487;DHT22;10402;49.012;8.370;2023-02-21T09:43:28;9.70;77.50
20487;DHT22;10402;49.012;8.370;2023-02-21T09:45:59;9.80;77.50
20487;DHT22;10402;49.012;8.370;2023-02-21T09:48:25;9.90;77.50
20487;DHT22;10402;49.012;8.370;2023-02-21T09:51:01;9.90;77.30
20487;DHT22;10402;49.012;8.370;2023-02-21T09:53:30;10.00;76.10
20487;DHT22;10402;49.012;8.370;2023-02-21T09:56:09;10.00;76.00
20487;DHT22;10402;49.012;8.370;2023-02-21T09:58:38;10.10;76.00
20487;DHT22;10402;49.012;8.370;2023-02-21T10:01:17;10.20;75.80
20487;DHT22;10402;49.012;8.370;2023-02-21T10:03:47;10.30;75.80
20487;DHT22;10402;49.012;8.370;2023-02-21T10:12:06;10.50;75.30
20487;DHT22;10402;49.012;8.370;2023-02-21T10:17:34;10.60;75.00
20487;DHT22;10402;49.012;8.370;2023-02-21T10:22:55;10.80;74.50
20487;DHT22;10402;49.012;8.370;2023-02-21T10:25:30;10.80;74.50
20487;DHT22;10402;49.012;8.370;2023-02-21T10:27:58;10.90;74.30
20487;DHT22;10402;49.012;8.370;2023-02-21T10:30:33;11.00;74.10
20487;DHT22;10402;49.012;8.370;2023-02-21T10:33:00;11.00;74.00
20487;DHT22;10402;49.012;8.370;2023-02-21T10:35:34;11.10;74.00
20487;DHT22;10402;49.012;8.370;2023-02-21T10:38:01;11.20;73.90
20487;DHT22;10402;49.012;8.370;2023-02-21T10:40:49;11.20;73.70
20487;DHT22;10402;49.012;8.370;2023-02-21T10:46:19;11.40;73.70
20487;DHT22;10402;49.012;8.370;2023-02-21T10:48:49;11.40;73.40
20487;DHT22;10402;49.012;8.370;2023-02-21T10:51:27;11.40;73.20
20487;DHT22;10402;49.012;8.370;2023-02-21T10:53:52;11.50;73.20
20487;DHT22;10402;49.012;8.370;2023-02-21T10:56:23;11.50;73.00
20487;DHT22;10402;49.012;8.370;2023-02-21T10:58:59;11.60;73.10
20487;DHT22;10402;49.012;8.370;2023-02-21T11:03:56;11.60;73.00
20487;DHT22;10402;49.012;8.370;2023-02-21T11:08:55;11.70;72.70
20487;DHT22;10402;49.012;8.370;2023-02-21T11:11:39;11.70;72.70
20487;DHT22;10402;49.012;8.370;2023-02-21T11:16:42;11.80;72.80
20487;DHT22;10402;49.012;8.370;2023-02-21T11:19:12;11.90;72.80
20487;DHT22;10402;49.012;8.370;2023-02-21T11:21:38;11.90;72.70
20487;DHT22;10402;49.012;8.370;2023-02-21T11:24:05;11.90;72.50
20487;DHT22;10402;49.012;8.370;2023-02-21T11:26:37;11.90;72.40
20487;DHT22;10402;49.012;8.370;2023-02-21T11:29:10;12.00;72.40
20487;DHT22;10402;49.012;8.370;2023-02-21T11:31:38;12.00;72.30
20487;DHT22;10402;49.012;8.370;2023-02-21T11:34:06;12.10;72.30
20487;DHT22;10402;49.012;8.370;2023-02-21T11:36:35;12.10;72.00
20487;DHT22;10402;49.012;8.370;2023-02-21T11:39:19;12.10;72.10
20487;DHT22;10402;49.012;8.370;2023-02-21T11:47:27;12.30;71.70
20487;DHT22;10402;49.012;8.370;2023-02-21T11:50:10;12.30;71.30
20487;DHT22;10402;49.012;8.370;2023-02-21T11:52:39;12.30;71.10
20487;DHT22;10402;49.012;8.370;2023-02-21T11:55:22;12.30;71.00
20487;DHT22;10402;49.012;8.370;2023-02-21T12:01:10;12.40;70.80
20487;DHT22;10402;49.012;8.370;2023-02-21T12:06:44;12.50;70.50
20487;DHT22;10402;49.012;8.370;2023-02-21T12:14:45;12.60;69.90
20487;DHT22;10402;49.012;8.370;2023-02-21T12:17:28;12.60;69.70
20487;DHT22;10402;49.012;8.370;2023-02-21T12:22:58;12.70;69.40
20487;DHT22;10402;49.012;8.370;2023-02-21T12:25:41;12.70;69.10
20487;DHT22;10402;49.012;8.370;2023-02-21T12:33:47;12.90;68.70
20487;DHT22;10402;49.012;8.370;2023-02-21T12:42:04;13.00;68.10
20487;DHT22;10402;49.012;8.370;2023-02-21T12:47:35;13.00;67.70
20487;DHT22;10402;49.012;8.370;2023-02-21T12:50:29;13.10;67.40
20487;DHT22;10402;49.012;8.370;2023-02-21T12:53:19;13.10;67.20
20487;DHT22;10402;49.012;8.370;2023-02-21T12:55:51;13.20;66.80
20487;DHT22;10402;49.012;8.370;2023-02-21T12:58:27;13.20;67.40
20487;DHT22;10402;49.012;8.370;2023-02-21T13:01:14;13.20;66.40
20487;DHT22;10402;49.012;8.370;2023-02-21T13:04:03;13.30;66.20
20487;DHT22;10402;49.012;8.370;2023-02-21T13:06:37;13.40;65.70
20487;DHT22;10402;49.012;8.370;2023-02-21T13:09:39;13.40;65.60
20487;DHT22;10402;49.012;8.370;2023-02-21T13:12:16;13.40;65.50
20487;DHT22;10402;49.012;8.370;2023-02-21T13:14:44;13.50;65.30
20487;DHT22;10402;49.012;8.370;2023-02-21T13:17:13;13.50;65.10
20487;DHT22;10402;49.012;8.370;2023-02-21T13:25:46;13.60;65.00
20487;DHT22;10402;49.012;8.370;2023-02-21T13:28:23;13.80;64.60
20487;DHT22;10402;49.012;8.370;2023-02-21T13:30:57;13.70;64.40
20487;DHT22;10402;49.012;8.370;2023-02-21T13:33:39;13.80;64.10
20487;DHT22;10402;49.012;8.370;2023-02-21T13:36:38;13.80;63.80
20487;DHT22;10402;49.012;8.370;2023-02-21T13:41:35;13.90;63.20
20487;DHT22;10402;49.012;8.370;2023-02-21T13:44:09;13.90;63.20
20487;DHT22;10402;49.012;8.370;2023-02-21T13:57:42;14.00;63.20
20487;DHT22;10402;49.012;8.370;2023-02-21T14:08:26;14.00;62.70
20487;DHT22;10402;49.012;8.370;2023-02-21T14:18:43;14.20;61.90
20487;DHT22;10402;49.012;8.370;2023-02-21T14:21:21;14.20;61.90
20487;DHT22;10402;49.012;8.370;2023-02-21T14:24:14;14.20;61.70
20487;DHT22;10402;49.012;8.370;2023-02-21T14:26:49;14.20;61.60
20487;DHT22;10402;49.012;8.370;2023-02-21T14:34:34;14.40;60.90
20487;DHT22;10402;49.012;8.370;2023-02-21T14:37:05;14.40;60.80
20487;DHT22;10402;49.012;8.370;2023-02-21T14:39:42;14.40;60.60
20487;DHT22;10402;49.012;8.370;2023-02-21T14:47:44;14.40;60.50
20487;DHT22;10402;49.012;8.370;2023-02-21T14:59:04;14.50;60.00
20487;DHT22;10402;49.012;8.370;2023-02-21T15:04:18;14.50;59.80
20487;DHT22;10402;49.012;8.370;2023-02-21T15:07:10;14.50;59.70
20487;DHT22;10402;49.012;8.370;2023-02-21T15:09:40;14.50;59.70
20487;DHT22;10402;49.012;8.370;2023-02-21T15:12:12;14.50;59.40
20487;DHT22;10402;49.012;8.370;2023-02-21T15:14:49;14.60;59.40
20487;DHT22;10402;49.012;8.370;2023-02-21T15:17:23;14.50;59.20
20487;DHT22;10402;49.012;8.370;2023-02-21T15:20:14;14.60;59.30
20487;DHT22;10402;49.012;8.370;2023-02-21T15:22:40;14.60;59.40
20487;DHT22;10402;49.012;8.370;2023-02-21T15:27:37;14.50;59.10
20487;DHT22;10402;49.012;8.370;2023-02-21T15:30:11;14.50;59.10
20487;DHT22;10402;49.012;8.370;2023-02-21T15:32:38;14.50;59.10
20487;DHT22;10402;49.012;8.370;2023-02-21T15:35:06;14.50;59.10
20487;DHT22;10402;49.012;8.370;2023-02-21T15:37:37;14.50;59.10
20487;DHT22;10402;49.012;8.370;2023-02-21T15:40:19;14.50;59.10
20487;DHT22;10402;49.012;8.370;2023-02-21T15:42:46;14.50;59.10
20487;DHT22;10402;49.012;8.370;2023-02-21T15:45:19;14.50;58.80
20487;DHT22;10402;49.012;8.370;2023-02-21T15:47:45;14.50;58.80
20487;DHT22;10402;49.012;8.370;2023-02-21T15:52:52;14.50;58.70
20487;DHT22;10402;49.012;8.370;2023-02-21T15:57:46;14.50;58.50
20487;DHT22;10402;49.012;8.370;2023-02-21T16:00:29;14.50;58.40
20487;DHT22;10402;49.012;8.370;2023-02-21T16:06:25;14.40;58.40
20487;DHT22;10402;49.012;8.370;2023-02-21T16:08:59;14.30;58.30
20487;DHT22;10402;49.012;8.370;2023-02-21T16:11:44;14.30;58.20
20487;DHT22;10402;49.012;8.370;2023-02-21T16:19:43;14.20;58.30
20487;DHT22;10402;49.012;8.370;2023-02-21T16:22:31;14.20;58.20
20487;DHT22;10402;49.012;8.370;2023-02-21T16:25:20;14.20;58.30
20487;DHT22;10402;49.012;8.370;2023-02-21T16:28:10;14.10;58.40
20487;DHT22;10402;49.012;8.370;2023-02-21T16:30:36;14.10;58.40
20487;DHT22;10402;49.012;8.370;2023-02-21T16:33:04;14.00;58.40
20487;DHT22;10402;49.012;8.370;2023-02-21T16:35:31;14.00;58.70
20487;DHT22;10402;49.012;8.370;2023-02-21T16:37:58;14.00;58.70
20487;DHT22;10402;49.012;8.370;2023-02-21T16:40:30;14.00;59.10
20487;DHT22;10402;49.012;8.370;2023-02-21T16:42:56;13.90;58.90
20487;DHT22;10402;49.012;8.370;2023-02-21T16:45:24;13.90;58.90
20487;DHT22;10402;49.012;8.370;2023-02-21T16:47:55;13.90;58.90
20487;DHT22;10402;49.012;8.370;2023-02-21T16:50:26;13.90;58.90
20487;DHT22;10402;49.012;8.370;2023-02-21T16:52:52;13.80;58.90
20487;DHT22;10402;49.012;8.370;2023-02-21T16:55:19;13.80;58.90
20487;DHT22;10402;49.012;8.370;2023-02-21T16:57:48;13.70;58.80
20487;DHT22;10402;49.012;8.370;2023-02-21T17:00:16;13.70;58.90
20487;DHT22;10402;49.012;8.370;2023-02-21T17:02:42;13.70;59.00
20487;DHT22;10402;49.012;8.370;2023-02-21T17:05:08;13.60;59.00
20487;DHT22;10402;49.012;8.370;2023-02-21T17:07:33;13.60;59.00
20487;DHT22;10402;49.012;8.370;2023-02-21T17:09:59;13.60;59.00
20487;DHT22;10402;49.012;8.370;2023-02-21T17:12:24;13.50;59.00
20487;DHT22;10402;49.012;8.370;2023-02-21T17:14:50;13.50;59.10
20487;DHT22;10402;49.012;8.370;2023-02-21T17:17:15;13.40;59.10
20487;DHT22;10402;49.012;8.370;2023-02-21T17:19:42;13.40;59.10
20487;DHT22;10402;49.012;8.370;2023-02-21T17:22:07;13.40;59.20
20487;DHT22;10402;49.012;8.370;2023-02-21T17:24:33;13.40;59.20
20487;DHT22;10402;49.012;8.370;2023-02-21T17:26:58;13.30;59.20
20487;DHT22;10402;49.012;8.370;2023-02-21T17:29:24;13.30;59.20
20487;DHT22;10402;49.012;8.370;2023-02-21T17:31:54;13.30;59.20
20487;DHT22;10402;49.012;8.370;2023-02-21T17:34:20;13.30;59.30
20487;DHT22;10402;49.012;8.370;2023-02-21T17:36:52;13.20;59.20
20487;DHT22;10402;49.012;8.370;2023-02-21T17:39:19;13.20;59.20
20487;DHT22;10402;49.012;8.370;2023-02-21T17:41:46;13.10;59.20
20487;DHT22;10402;49.012;8.370;2023-02-21T17:44:13;13.10;59.40
20487;DHT22;10402;49.012;8.370;2023-02-21T17:46:38;13.00;59.40
20487;DHT22;10402;49.012;8.370;2023-02-21T17:49:04;12.90;59.50
20487;DHT22;10402;49.012;8.370;2023-02-21T17:51:30;12.90;59.70
20487;DHT22;10402;49.012;8.370;2023-02-21T17:53:55;12.80;59.70
20487;DHT22;10402;49.012;8.370;2023-02-21T17:56:23;12.80;59.80
20487;DHT22;10402;49.012;8.370;2023-02-21T17:58:49;12.80;59.80
20487;DHT22;10402;49.012;8.370;2023-02-21T18:01:16;12.70;59.90
20487;DHT22;10402;49.012;8.370;2023-02-21T18:03:43;12.70;60.00
20487;DHT22;10402;49.012;8.370;2023-02-21T18:06:09;12.60;60.00
20487;DHT22;10402;49.012;8.370;2023-02-21T18:08:34;12.60;60.10
20487;DHT22;10402;49.012;8.370;2023-02-21T18:11:00;12.60;60.30
20487;DHT22;10402;49.012;8.370;2023-02-21T18:13:26;12.50;60.30
20487;DHT22;10402;49.012;8.370;2023-02-21T18:15:51;12.50;60.50
20487;DHT22;10402;49.012;8.370;2023-02-21T18:18:17;12.40;60.60
20487;DHT22;10402;49.012;8.370;2023-02-21T18:20:42;12.40;60.70
20487;DHT22;10402;49.012;8.370;2023-02-21T18:23:10;12.30;60.70
20487;DHT22;10402;49.012;8.370;2023-02-21T18:25:35;12.30;60.90
20487;DHT22;10402;49.012;8.370;2023-02-21T18:28:01;12.30;61.00
20487;DHT22;10402;49.012;8.370;2023-02-21T18:30:27;12.20;61.00
20487;DHT22;10402;49.012;8.370;2023-02-21T18:32:53;12.20;61.10
20487;DHT22;10402;49.012;8.370;2023-02-21T18:35:19;12.10;61.10
20487;DHT22;10402;49.012;8.370;2023-02-21T18:37:45;12.10;61.20
20487;DHT22;10402;49.012;8.370;2023-02-21T18:40:13;12.10;61.20
20487;DHT22;10402;49.012;8.370;2023-02-21T18:42:40;12.10;61.30
20487;DHT22;10402;49.012;8.370;2023-02-21T18:45:06;12.10;62.10
20487;DHT22;10402;49.012;8.370;2023-02-21T18:47:32;12.10;61.50
20487;DHT22;10402;49.012;8.370;2023-02-21T18:49:59;12.00;61.50